KSYR/SYR METAR and TAF weather

Enter ICAO airport designator
Station Type Date Time Source
KSYR METAR 2021/03/03 20:54 UTC NOAA

KSYR 032054Z 30007KT 10SM OVC039 06/M03 A2984 RMK AO2 SLP106 T00561033 53001


Station Type Date Time Source
KSYR Decoded METAR 2021/03/03 20:54 UTC NOAA

SYRACUSE HANCOCK INTERNATIONAL AIRPORT , NY, United States (KSYR) 43-07N 76-06W 127M
Mar 03, 2021 - 03:54 PM EST / 2021.03.03 2054 UTC
Wind: from the WNW (300 degrees) at 8 MPH (7 KT):0
Visibility: 10 mile(s):0
Sky conditions: overcast
Temperature: 42.1 F (5.6 C)
Dew Point: 26.1 F (-3.3 C)
Relative Humidity: 52%
Pressure (altimeter): 29.84 in. Hg (1010 hPa)
Pressure tendency: 0.00 inches (0.1 hPa) higher than three hours ago
ob: KSYR 032054Z 30007KT 10SM OVC039 06/M03 A2984 RMK AO2 SLP106 T00561033 53001
cycle: 21

Station Type Date Time Source
KSYR TAF 2021/03/03 18:22 UTC NOAA

TAF KSYR 031720Z 0318/0418 28009KT P6SM OVC035
FM040000 27005KT P6SM OVC025
FM040400 29008KT 5SM -SHSN OVC015
FM041000 32008KT P6SM OVC025
FM041700 30014G21KT P6SM BKN050

Example: see airport list